Time;durP1;ratioP1;P1;durP2;ratioP2;P2;SDS_P1;SDS_P2;PMS_P1;PMS_P2;Temp;Humidity;BMP_temperature;BMP_pressure;BME280_temperature;BME280_humidity;BME280_pressure;Samples;Min_cycle;Max_cycle;Signal;HPM_P1;HPM_P2
2023/06/20 00:01:24;;;;;;;;;;;17.70;99.90;;;;;;5012800;28;19950;-83
2023/06/20 00:03:50;;;;;;;;;;;17.70;99.90;;;;;;5029277;28;20269;-83
2023/06/20 00:06:16;;;;;;;;;;;17.70;99.90;;;;;;5014339;28;19933;-83
2023/06/20 00:08:41;;;;;;;;;;;17.60;99.90;;;;;;5032658;28;19925;-83
2023/06/20 00:11:07;;;;;;;;;;;17.70;99.90;;;;;;5015744;28;20278;-84
2023/06/20 00:13:34;;;;;;;;;;;17.70;99.90;;;;;;5013083;28;20303;-83
2023/06/20 00:16:00;;;;;;;;;;;17.70;99.90;;;;;;5009813;28;20284;-84
2023/06/20 00:18:26;;;;;;;;;;;17.70;99.90;;;;;;5018811;28;19929;-83
2023/06/20 00:20:53;;;;;;;;;;;17.60;99.90;;;;;;5032635;28;19931;-83
2023/06/20 00:23:20;;;;;;;;;;;17.60;99.90;;;;;;5015939;28;20282;-84
2023/06/20 00:25:46;;;;;;;;;;;17.60;99.90;;;;;;5032651;28;19936;-84
2023/06/20 00:28:14;;;;;;;;;;;17.60;99.90;;;;;;5022255;28;20039;-84
2023/06/20 00:30:42;;;;;;;;;;;17.60;99.90;;;;;;5000802;28;20404;-86
2023/06/20 00:33:07;;;;;;;;;;;17.50;99.90;;;;;;5008895;28;20021;-85
2023/06/20 00:35:33;;;;;;;;;;;17.50;99.90;;;;;;5032152;28;19925;-83
2023/06/20 00:38:00;;;;;;;;;;;17.50;99.90;;;;;;4999357;28;20532;-84
2023/06/20 00:40:29;;;;;;;;;;;17.50;99.90;;;;;;5032095;28;20018;-84
2023/06/20 00:42:55;;;;;;;;;;;17.40;99.90;;;;;;4995666;28;19926;-83
2023/06/20 00:45:30;;;;;;;;;;;17.40;99.90;;;;;;5014353;28;20524;-83
2023/06/20 00:48:00;;;;;;;;;;;17.40;99.90;;;;;;5030131;28;19925;-84
2023/06/20 00:50:27;;;;;;;;;;;17.40;99.90;;;;;;5031477;28;20016;-83
2023/06/20 00:52:57;;;;;;;;;;;17.40;99.90;;;;;;5031280;28;20399;-84
2023/06/20 00:55:23;;;;;;;;;;;17.30;99.90;;;;;;5028607;28;20385;-83
2023/06/20 00:57:49;;;;;;;;;;;17.30;99.90;;;;;;5030763;28;19936;-83
2023/06/20 01:00:15;;;;;;;;;;;17.30;99.90;;;;;;5012428;28;21018;-83
2023/06/20 01:02:46;;;;;;;;;;;17.30;99.90;;;;;;5027061;28;20397;-83
2023/06/20 01:05:32;;;;;;;;;;;17.30;99.90;;;;;;5007952;28;20024;-84
2023/06/20 01:08:18;;;;;;;;;;;17.30;99.90;;;;;;5029985;28;20290;-83
2023/06/20 01:10:51;;;;;;;;;;;17.30;99.90;;;;;;5013215;28;19933;-83
2023/06/20 01:13:38;;;;;;;;;;;17.20;99.90;;;;;;5024159;28;19936;-84
2023/06/20 01:16:10;;;;;;;;;;;17.20;99.90;;;;;;5029603;28;20372;-84
2023/06/20 01:18:44;;;;;;;;;;;17.10;99.90;;;;;;5011493;28;19926;-83
2023/06/20 01:21:13;;;;;;;;;;;17.20;99.90;;;;;;5011659;28;19940;-84
2023/06/20 01:24:14;;;;;;;;;;;17.20;99.90;;;;;;5031664;28;19927;-84
2023/06/20 01:26:52;;;;;;;;;;;17.20;99.90;;;;;;4993073;28;19984;-83
2023/06/20 01:29:26;;;;;;;;;;;17.20;99.90;;;;;;5011579;28;19925;-84
2023/06/20 01:31:56;;;;;;;;;;;17.20;99.90;;;;;;5014439;28;20011;-83
2023/06/20 01:34:27;;;;;;;;;;;17.20;99.90;;;;;;5030039;28;19925;-84
2023/06/20 01:36:55;;;;;;;;;;;17.20;99.90;;;;;;4997936;28;19925;-84
2023/06/20 01:39:41;;;;;;;;;;;17.20;99.90;;;;;;5032120;28;19925;-84
2023/06/20 01:42:06;;;;;;;;;;;17.20;99.90;;;;;;5013221;28;19933;-83
2023/06/20 01:44:33;;;;;;;;;;;17.10;99.90;;;;;;5030509;28;19925;-83
2023/06/20 01:47:01;;;;;;;;;;;17.10;99.90;;;;;;5029534;28;20297;-83
2023/06/20 01:49:27;;;;;;;;;;;17.30;99.90;;;;;;5004358;28;20012;-84
2023/06/20 01:51:57;;;;;;;;;;;17.10;99.90;;;;;;5028356;28;19925;-84
2023/06/20 01:54:24;;;;;;;;;;;17.10;99.90;;;;;;5031368;28;19929;-84
2023/06/20 01:56:51;;;;;;;;;;;17.10;99.90;;;;;;5013081;28;19974;-84
2023/06/20 01:59:23;;;;;;;;;;;17.10;99.90;;;;;;4998985;28;20067;-84
2023/06/20 02:01:49;;;;;;;;;;;17.00;99.90;;;;;;5011258;28;19980;-84
2023/06/20 02:04:17;;;;;;;;;;;17.00;99.90;;;;;;5006587;28;20020;-84
2023/06/20 02:06:49;;;;;;;;;;;17.00;99.90;;;;;;5024447;28;19925;-84
2023/06/20 02:09:16;;;;;;;;;;;17.20;99.90;;;;;;5030215;28;19925;-84
2023/06/20 02:11:45;;;;;;;;;;;17.00;99.90;;;;;;5010898;28;19925;-83
2023/06/20 02:14:11;;;;;;;;;;;17.00;99.90;;;;;;4996308;28;19929;-84
2023/06/20 02:16:38;;;;;;;;;;;17.00;99.90;;;;;;5010830;28;19932;-84
2023/06/20 02:19:10;;;;;;;;;;;17.00;99.90;;;;;;5007053;28;20496;-85
2023/06/20 02:21:40;;;;;;;;;;;17.00;99.90;;;;;;5030862;28;19925;-84
2023/06/20 02:24:06;;;;;;;;;;;17.00;99.90;;;;;;5013522;28;20353;-83
2023/06/20 02:26:34;;;;;;;;;;;17.00;99.90;;;;;;5010881;28;19935;-83
2023/06/20 02:29:04;;;;;;;;;;;17.00;99.90;;;;;;5026036;28;20531;-83
2023/06/20 02:31:35;;;;;;;;;;;17.00;99.90;;;;;;5044621;28;20304;-83
2023/06/20 02:34:09;;;;;;;;;;;17.00;99.90;;;;;;5031103;28;20321;-83
2023/06/20 02:36:38;;;;;;;;;;;17.00;99.90;;;;;;5031959;28;20339;-84
2023/06/20 02:39:07;;;;;;;;;;;17.00;99.90;;;;;;5029956;28;19925;-83
2023/06/20 02:41:32;;;;;;;;;;;17.00;99.90;;;;;;5007130;28;20395;-83
2023/06/20 02:43:58;;;;;;;;;;;17.00;99.90;;;;;;5013382;28;19957;-83
2023/06/20 02:46:29;;;;;;;;;;;17.00;99.90;;;;;;5033094;28;19971;-83
2023/06/20 02:48:54;;;;;;;;;;;17.00;99.90;;;;;;5002449;28;20048;-83
2023/06/20 02:51:23;;;;;;;;;;;17.00;99.90;;;;;;5015056;28;20087;-83
2023/06/20 02:53:56;;;;;;;;;;;17.00;99.90;;;;;;5032822;28;19948;-83
2023/06/20 02:56:23;;;;;;;;;;;17.00;99.90;;;;;;5033637;28;19932;-84
2023/06/20 02:58:54;;;;;;;;;;;17.00;99.90;;;;;;4976924;28;19926;-83
2023/06/20 03:01:30;;;;;;;;;;;17.00;99.90;;;;;;4992847;28;19929;-84
2023/06/20 03:03:59;;;;;;;;;;;17.00;99.90;;;;;;4959970;28;19965;-84
2023/06/20 03:06:27;;;;;;;;;;;16.80;99.90;;;;;;4976266;28;19926;-84
2023/06/20 03:08:54;;;;;;;;;;;16.90;99.90;;;;;;4960144;28;20336;-84
2023/06/20 03:11:19;;;;;;;;;;;17.00;99.90;;;;;;4956110;28;19930;-84
2023/06/20 03:13:45;;;;;;;;;;;16.90;99.90;;;;;;4977149;28;20215;-84
2023/06/20 03:16:12;;;;;;;;;;;16.90;99.90;;;;;;4992800;28;19926;-84
2023/06/20 03:18:41;;;;;;;;;;;16.90;99.90;;;;;;4974316;28;19926;-84
2023/06/20 03:21:09;;;;;;;;;;;16.90;99.90;;;;;;4997154;28;20405;-85
2023/06/20 03:23:35;;;;;;;;;;;16.90;99.90;;;;;;4982771;28;19969;-84
2023/06/20 03:26:01;;;;;;;;;;;16.90;99.90;;;;;;4957092;28;19926;-84
2023/06/20 03:28:27;;;;;;;;;;;16.90;99.90;;;;;;4971036;28;19926;-84
2023/06/20 03:30:58;;;;;;;;;;;16.90;99.90;;;;;;4971941;28;19926;-83
2023/06/20 03:33:38;;;;;;;;;;;16.90;99.90;;;;;;4979200;28;20301;-83
2023/06/20 03:36:04;;;;;;;;;;;16.70;99.90;;;;;;5011626;28;19932;-83
2023/06/20 03:38:36;;;;;;;;;;;16.90;99.90;;;;;;5000751;28;19926;-83
2023/06/20 03:41:01;;;;;;;;;;;16.90;99.90;;;;;;5016456;28;19926;-83
2023/06/20 03:43:27;;;;;;;;;;;16.90;99.90;;;;;;5031857;28;19925;-84
2023/06/20 03:45:53;;;;;;;;;;;16.90;99.90;;;;;;5028846;28;19925;-84
2023/06/20 03:48:21;;;;;;;;;;;16.90;99.90;;;;;;5044808;28;19936;-84
2023/06/20 03:50:48;;;;;;;;;;;16.90;99.90;;;;;;5003895;28;20241;-84
2023/06/20 03:53:14;;;;;;;;;;;16.90;99.90;;;;;;5031583;28;19928;-84
2023/06/20 03:55:39;;;;;;;;;;;16.90;99.90;;;;;;5015899;28;20004;-84
2023/06/20 03:58:05;;;;;;;;;;;16.90;99.90;;;;;;4997604;28;19976;-86
2023/06/20 04:00:30;;;;;;;;;;;16.90;99.90;;;;;;5010548;28;19926;-84
2023/06/20 04:02:56;;;;;;;;;;;17.00;99.90;;;;;;5010439;28;20387;-84
2023/06/20 04:05:22;;;;;;;;;;;17.00;99.90;;;;;;5032247;28;19925;-84
2023/06/20 04:07:47;;;;;;;;;;;17.00;99.90;;;;;;5016214;28;19988;-84
2023/06/20 04:10:13;;;;;;;;;;;17.10;99.90;;;;;;5027339;28;19929;-86
2023/06/20 04:12:39;;;;;;;;;;;17.10;99.90;;;;;;5028137;28;19936;-84
2023/06/20 04:15:05;;;;;;;;;;;17.10;99.90;;;;;;5025548;28;19925;-83
2023/06/20 04:17:34;;;;;;;;;;;17.10;99.90;;;;;;5028688;28;20011;-84
2023/06/20 04:20:04;;;;;;;;;;;17.10;99.90;;;;;;5030922;28;20338;-83
2023/06/20 04:22:29;;;;;;;;;;;17.10;99.90;;;;;;5008719;28;19937;-83
2023/06/20 04:24:55;;;;;;;;;;;17.10;99.90;;;;;;5023710;28;20373;-84
2023/06/20 04:27:21;;;;;;;;;;;17.10;99.90;;;;;;4997355;28;19987;-84
2023/06/20 04:29:46;;;;;;;;;;;17.20;99.90;;;;;;5031805;28;19975;-85
2023/06/20 04:32:13;;;;;;;;;;;17.20;99.90;;;;;;4998778;28;19925;-84
2023/06/20 04:34:39;;;;;;;;;;;17.20;99.90;;;;;;5031051;28;20365;-83
2023/06/20 04:37:05;;;;;;;;;;;17.30;99.90;;;;;;5008590;28;19926;-87
2023/06/20 04:39:30;;;;;;;;;;;17.30;99.90;;;;;;5015600;28;20353;-84
2023/06/20 04:41:56;;;;;;;;;;;17.40;99.90;;;;;;5031929;28;19925;-84
2023/06/20 04:44:21;;;;;;;;;;;17.40;99.90;;;;;;5031545;28;19925;-84
2023/06/20 04:46:49;;;;;;;;;;;17.40;99.90;;;;;;5031602;28;20007;-84
2023/06/20 04:49:15;;;;;;;;;;;17.50;99.90;;;;;;5030067;28;20327;-84
2023/06/20 04:51:41;;;;;;;;;;;17.20;99.90;;;;;;4999202;28;19925;-85
2023/06/20 04:54:07;;;;;;;;;;;17.60;99.90;;;;;;4996199;28;19976;-84
2023/06/20 04:56:40;;;;;;;;;;;17.60;99.90;;;;;;5032346;28;20016;-84
2023/06/20 04:59:09;;;;;;;;;;;17.60;99.90;;;;;;5014296;28;20338;-84
2023/06/20 05:01:34;;;;;;;;;;;17.70;99.90;;;;;;5011471;28;20406;-83
2023/06/20 05:04:03;;;;;;;;;;;17.70;99.90;;;;;;5044258;28;20016;-84
2023/06/20 05:06:29;;;;;;;;;;;17.70;99.90;;;;;;5011936;28;19925;-83
2023/06/20 05:08:54;;;;;;;;;;;17.70;99.90;;;;;;5028599;28;19925;-83
2023/06/20 05:11:21;;;;;;;;;;;17.60;99.90;;;;;;5023619;28;20020;-84
2023/06/20 05:13:46;;;;;;;;;;;17.80;99.90;;;;;;5026495;28;20322;-83
2023/06/20 05:16:12;;;;;;;;;;;17.80;99.90;;;;;;5007674;28;19980;-84
2023/06/20 05:18:37;;;;;;;;;;;17.80;99.90;;;;;;5006580;28;19996;-83
2023/06/20 05:21:09;;;;;;;;;;;17.80;99.90;;;;;;5009566;28;19935;-83
2023/06/20 05:23:35;;;;;;;;;;;17.90;99.90;;;;;;5032420;28;19925;-84
2023/06/20 05:26:01;;;;;;;;;;;17.90;99.90;;;;;;5031496;28;19940;-83
2023/06/20 05:28:28;;;;;;;;;;;17.90;99.90;;;;;;5030570;28;20023;-84
2023/06/20 05:30:55;;;;;;;;;;;17.90;99.90;;;;;;5012488;28;20245;-85
2023/06/20 05:33:28;;;;;;;;;;;17.90;99.90;;;;;;5031456;28;19949;-82
2023/06/20 05:36:12;;;;;;;;;;;18.00;99.90;;;;;;4993786;28;19926;-83
2023/06/20 05:38:38;;;;;;;;;;;18.00;99.90;;;;;;5027734;28;19932;-84
2023/06/20 05:41:05;;;;;;;;;;;18.00;99.90;;;;;;5031363;28;20262;-84
2023/06/20 05:43:33;;;;;;;;;;;18.00;99.90;;;;;;5013519;28;19933;-84
2023/06/20 05:46:04;;;;;;;;;;;18.10;99.90;;;;;;5014856;28;19929;-85
2023/06/20 05:48:40;;;;;;;;;;;18.10;99.90;;;;;;5026602;28;20313;-85
2023/06/20 05:51:40;;;;;;;;;;;18.10;99.90;;;;;;5006543;28;19937;-85
2023/06/20 05:54:25;;;;;;;;;;;18.10;99.90;;;;;;5019375;28;19979;-85
2023/06/20 05:57:13;;;;;;;;;;;18.10;99.90;;;;;;5025099;28;19961;-84
2023/06/20 05:59:39;;;;;;;;;;;18.00;99.90;;;;;;5005441;28;20342;-83
2023/06/20 06:02:05;;;;;;;;;;;18.20;99.90;;;;;;4994613;28;19925;-84
2023/06/20 06:04:33;;;;;;;;;;;18.20;99.90;;;;;;5001104;28;19928;-87
2023/06/20 06:06:59;;;;;;;;;;;18.20;99.90;;;;;;5024813;28;20226;-84
2023/06/20 06:09:24;;;;;;;;;;;18.20;99.90;;;;;;5013065;28;19925;-83
2023/06/20 06:11:50;;;;;;;;;;;18.10;99.90;;;;;;5011207;28;20004;-83
2023/06/20 06:14:16;;;;;;;;;;;18.40;99.90;;;;;;5011096;28;19952;-84
2023/06/20 06:16:41;;;;;;;;;;;18.40;99.90;;;;;;5031184;28;20239;-84
2023/06/20 06:19:07;;;;;;;;;;;18.40;99.90;;;;;;5032286;28;19931;-85
2023/06/20 06:21:33;;;;;;;;;;;18.50;99.90;;;;;;5015821;28;19929;-83
2023/06/20 06:23:58;;;;;;;;;;;18.50;99.90;;;;;;5032449;28;19925;-84
2023/06/20 06:26:24;;;;;;;;;;;18.60;99.90;;;;;;5016131;28;19925;-87
2023/06/20 06:28:49;;;;;;;;;;;18.70;99.90;;;;;;5033032;28;19939;-83
2023/06/20 06:31:17;;;;;;;;;;;18.70;99.90;;;;;;5032552;28;20266;-82
2023/06/20 06:33:43;;;;;;;;;;;18.80;99.90;;;;;;5031485;28;19969;-85
2023/06/20 06:36:09;;;;;;;;;;;18.90;99.90;;;;;;5028234;28;19988;-84
2023/06/20 06:38:34;;;;;;;;;;;19.00;99.90;;;;;;5032499;28;20014;-84
2023/06/20 06:41:00;;;;;;;;;;;19.00;99.90;;;;;;5013237;28;19926;-84
2023/06/20 06:43:26;;;;;;;;;;;19.10;99.90;;;;;;5011900;28;20034;-84
2023/06/20 06:45:52;;;;;;;;;;;19.20;99.90;;;;;;5031269;28;19925;-83
2023/06/20 06:48:17;;;;;;;;;;;19.30;99.90;;;;;;5031764;28;19995;-84
2023/06/20 06:50:46;;;;;;;;;;;19.30;99.90;;;;;;5031571;28;20016;-84
2023/06/20 06:53:11;;;;;;;;;;;19.40;99.90;;;;;;5030843;28;19999;-83
2023/06/20 06:55:37;;;;;;;;;;;19.50;99.90;;;;;;5013978;28;19933;-83
2023/06/20 06:58:03;;;;;;;;;;;19.60;99.90;;;;;;5026712;28;19925;-83
2023/06/20 07:00:29;;;;;;;;;;;19.60;99.90;;;;;;5032510;28;20301;-83
2023/06/20 07:02:54;;;;;;;;;;;19.70;99.90;;;;;;5031444;28;19983;-85
2023/06/20 07:05:20;;;;;;;;;;;19.80;99.90;;;;;;5031684;28;20056;-84
2023/06/20 07:07:45;;;;;;;;;;;19.90;99.90;;;;;;5012315;28;19947;-84
2023/06/20 07:10:11;;;;;;;;;;;19.90;99.90;;;;;;5015158;28;19996;-85
2023/06/20 07:12:37;;;;;;;;;;;19.90;99.90;;;;;;5015605;28;19925;-83
2023/06/20 07:15:03;;;;;;;;;;;20.00;99.90;;;;;;5014179;28;20035;-84
2023/06/20 07:17:29;;;;;;;;;;;20.10;99.90;;;;;;5038449;28;20000;-84
2023/06/20 07:19:54;;;;;;;;;;;20.20;99.90;;;;;;5031357;28;19999;-84
2023/06/20 07:22:20;;;;;;;;;;;20.20;99.90;;;;;;5013957;28;20015;-83
2023/06/20 07:24:46;;;;;;;;;;;20.40;99.90;;;;;;5031215;28;19967;-83
2023/06/20 07:27:11;;;;;;;;;;;20.40;99.90;;;;;;5012852;28;19963;-84
2023/06/20 07:29:37;;;;;;;;;;;20.50;99.90;;;;;;5009603;28;19931;-83
2023/06/20 07:32:02;;;;;;;;;;;20.60;99.90;;;;;;5031632;28;19936;-83
2023/06/20 07:34:28;;;;;;;;;;;20.60;99.90;;;;;;5030590;28;19936;-83
2023/06/20 07:36:54;;;;;;;;;;;20.70;99.90;;;;;;5015118;28;19929;-83
2023/06/20 07:39:19;;;;;;;;;;;20.70;99.90;;;;;;5011719;28;19937;-84
2023/06/20 07:41:46;;;;;;;;;;;20.80;99.90;;;;;;5042760;28;19926;-85
2023/06/20 07:44:11;;;;;;;;;;;20.90;99.90;;;;;;5028126;28;20020;-85
2023/06/20 07:46:40;;;;;;;;;;;21.00;99.90;;;;;;5030470;28;20007;-83
2023/06/20 07:49:06;;;;;;;;;;;21.10;99.90;;;;;;5022741;28;19967;-83
2023/06/20 07:51:33;;;;;;;;;;;21.20;99.90;;;;;;5015138;28;20002;-84
2023/06/20 07:53:59;;;;;;;;;;;21.30;99.90;;;;;;5029724;28;20019;-83
2023/06/20 07:56:25;;;;;;;;;;;21.40;99.90;;;;;;5031052;28;20300;-84
2023/06/20 07:58:50;;;;;;;;;;;21.50;99.90;;;;;;5030982;28;19925;-84
2023/06/20 08:01:17;;;;;;;;;;;21.60;99.90;;;;;;5031230;28;19987;-83
2023/06/20 08:03:42;;;;;;;;;;;21.80;99.90;;;;;;5030138;28;19925;-85
2023/06/20 08:06:09;;;;;;;;;;;21.90;99.90;;;;;;5012781;28;20012;-85
2023/06/20 08:08:35;;;;;;;;;;;22.00;99.90;;;;;;5030288;28;19925;-84
2023/06/20 08:11:01;;;;;;;;;;;22.00;99.90;;;;;;5011566;28;20309;-84
2023/06/20 08:13:27;;;;;;;;;;;22.10;99.90;;;;;;5012961;28;19933;-85
2023/06/20 08:15:52;;;;;;;;;;;22.20;99.90;;;;;;5030983;28;19925;-85
2023/06/20 08:18:18;;;;;;;;;;;22.20;99.90;;;;;;5013651;28;19932;-84
2023/06/20 08:20:45;;;;;;;;;;;22.30;99.90;;;;;;5014358;28;19960;-84
2023/06/20 08:23:10;;;;;;;;;;;22.40;99.90;;;;;;5030525;28;19925;-85
2023/06/20 08:25:36;;;;;;;;;;;22.50;99.90;;;;;;5010818;28;19933;-85
2023/06/20 08:28:02;;;;;;;;;;;22.50;99.90;;;;;;5011761;28;20274;-84
2023/06/20 08:30:27;;;;;;;;;;;22.50;99.90;;;;;;5031002;28;20155;-83
2023/06/20 08:32:53;;;;;;;;;;;22.50;99.90;;;;;;5029952;28;19925;-84
2023/06/20 08:35:18;;;;;;;;;;;22.40;99.90;;;;;;5030479;28;20396;-84
2023/06/20 08:37:44;;;;;;;;;;;22.40;99.90;;;;;;5030623;28;19938;-84
2023/06/20 08:40:12;;;;;;;;;;;22.40;99.90;;;;;;5013567;28;20269;-84
2023/06/20 08:42:40;;;;;;;;;;;22.40;99.90;;;;;;5008543;28;19925;-85
2023/06/20 08:45:07;;;;;;;;;;;22.40;99.90;;;;;;5030167;28;20305;-85
2023/06/20 08:47:32;;;;;;;;;;;22.40;99.90;;;;;;5008069;28;19931;-84
2023/06/20 08:49:58;;;;;;;;;;;22.40;99.90;;;;;;5027704;28;19925;-84
2023/06/20 08:52:27;;;;;;;;;;;22.40;99.90;;;;;;5030471;28;19968;-84
2023/06/20 08:54:53;;;;;;;;;;;22.30;99.90;;;;;;5010407;28;19929;-84
2023/06/20 08:57:20;;;;;;;;;;;22.40;99.90;;;;;;5023108;28;20419;-86
2023/06/20 08:59:45;;;;;;;;;;;22.50;99.90;;;;;;5030860;28;19929;-84
2023/06/20 09:02:11;;;;;;;;;;;22.40;99.90;;;;;;5029679;28;19983;-85
2023/06/20 09:04:37;;;;;;;;;;;22.60;99.90;;;;;;5029051;28;19983;-85
2023/06/20 09:07:17;;;;;;;;;;;22.50;99.90;;;;;;5010439;28;19929;-85
2023/06/20 09:09:43;;;;;;;;;;;22.70;99.90;;;;;;5014147;28;20253;-84
2023/06/20 09:12:08;;;;;;;;;;;22.80;99.90;;;;;;5029727;28;19925;-86
2023/06/20 09:14:34;;;;;;;;;;;22.90;99.90;;;;;;5013754;28;20015;-85
2023/06/20 09:16:59;;;;;;;;;;;23.10;99.90;;;;;;5030048;28;20589;-85
2023/06/20 09:19:25;;;;;;;;;;;23.30;99.90;;;;;;5029236;28;19982;-85
2023/06/20 09:21:51;;;;;;;;;;;23.40;99.90;;;;;;5013614;28;19982;-86
2023/06/20 09:24:20;;;;;;;;;;;23.70;99.90;;;;;;5029223;28;19925;-86
2023/06/20 09:26:49;;;;;;;;;;;23.80;99.90;;;;;;5011012;28;19925;-85
2023/06/20 09:29:15;;;;;;;;;;;23.90;99.90;;;;;;5029904;28;19925;-86
2023/06/20 09:31:46;;;;;;;;;;;24.10;99.90;;;;;;5013019;28;20496;-86
2023/06/20 09:34:12;;;;;;;;;;;24.10;99.90;;;;;;5009603;28;19925;-86
2023/06/20 09:36:39;;;;;;;;;;;24.20;99.90;;;;;;5030241;28;19933;-84
2023/06/20 09:39:17;;;;;;;;;;;24.20;99.90;;;;;;5029818;28;19925;-84
2023/06/20 09:41:44;;;;;;;;;;;24.20;99.90;;;;;;5020247;28;19975;-84
2023/06/20 09:44:10;;;;;;;;;;;24.10;99.90;;;;;;5023080;28;19930;-84
2023/06/20 09:46:36;;;;;;;;;;;24.20;99.90;;;;;;5012709;28;20296;-85
2023/06/20 09:49:03;;;;;;;;;;;24.20;99.90;;;;;;5012550;28;19979;-86
2023/06/20 09:51:30;;;;;;;;;;;24.30;99.90;;;;;;5032137;28;19932;-85
2023/06/20 09:54:07;;;;;;;;;;;24.50;99.90;;;;;;5033833;28;19933;-85
2023/06/20 09:56:38;;;;;;;;;;;24.50;99.90;;;;;;5016870;28;20019;-85
2023/06/20 09:59:04;;;;;;;;;;;24.30;99.90;;;;;;5016428;28;20043;-86
2023/06/20 10:01:31;;;;;;;;;;;24.30;99.90;;;;;;5017241;28;20557;-85
2023/06/20 10:03:57;;;;;;;;;;;24.10;99.90;;;;;;5031055;28;19932;-85
2023/06/20 10:06:23;;;;;;;;;;;24.10;99.90;;;;;;5033594;28;20783;-85
2023/06/20 10:08:49;;;;;;;;;;;24.20;99.90;;;;;;5013717;28;20381;-85
2023/06/20 10:11:15;;;;;;;;;;;24.40;99.90;;;;;;5011602;28;20020;-85
2023/06/20 10:13:41;;;;;;;;;;;24.80;99.90;;;;;;5028965;28;20054;-85
2023/06/20 10:16:07;;;;;;;;;;;24.90;99.90;;;;;;5030129;28;19948;-84
2023/06/20 10:18:32;;;;;;;;;;;25.00;99.90;;;;;;5049231;28;19952;-85
2023/06/20 10:21:01;;;;;;;;;;;25.00;99.90;;;;;;5033657;28;19935;-85
2023/06/20 10:23:30;;;;;;;;;;;24.90;99.90;;;;;;5032908;28;19925;-84
2023/06/20 10:25:58;;;;;;;;;;;25.00;99.90;;;;;;5017067;28;19932;-85
2023/06/20 10:28:24;;;;;;;;;;;25.00;99.90;;;;;;5029376;28;20739;-85
2023/06/20 10:30:49;;;;;;;;;;;25.00;99.90;;;;;;5033216;28;20274;-86
2023/06/20 10:33:23;;;;;;;;;;;25.10;99.90;;;;;;5024464;28;19932;-85
2023/06/20 10:35:48;;;;;;;;;;;25.30;99.90;;;;;;5027396;28;19929;-85
2023/06/20 10:38:14;;;;;;;;;;;25.50;99.90;;;;;;5031394;28;20277;-85
2023/06/20 10:40:40;;;;;;;;;;;25.60;99.90;;;;;;5016884;28;19969;-84
2023/06/20 10:43:06;;;;;;;;;;;25.70;99.90;;;;;;4999390;28;19975;-84
2023/06/20 10:45:32;;;;;;;;;;;25.70;99.90;;;;;;5016390;28;19975;-85
2023/06/20 10:47:58;;;;;;;;;;;25.90;99.90;;;;;;5011743;28;19925;-84
2023/06/20 10:50:23;;;;;;;;;;;25.80;99.90;;;;;;5016207;28;20332;-84
2023/06/20 10:52:49;;;;;;;;;;;25.80;99.90;;;;;;5034180;28;19968;-85
2023/06/20 10:55:16;;;;;;;;;;;25.80;99.90;;;;;;5032525;28;19947;-84
2023/06/20 10:57:49;;;;;;;;;;;25.80;99.90;;;;;;5032288;28;20380;-84
2023/06/20 11:00:18;;;;;;;;;;;25.80;99.90;;;;;;5031834;28;19932;-85
2023/06/20 11:02:47;;;;;;;;;;;26.00;99.90;;;;;;5015095;28;19925;-85
2023/06/20 11:05:13;;;;;;;;;;;26.20;99.90;;;;;;5025199;28;19925;-85
2023/06/20 11:07:54;;;;;;;;;;;26.30;99.90;;;;;;5034260;28;20284;-84
2023/06/20 11:10:28;;;;;;;;;;;26.40;99.90;;;;;;5034296;28;19941;-85
2023/06/20 11:12:54;;;;;;;;;;;26.50;99.90;;;;;;5035142;28;20013;-85
2023/06/20 11:15:20;;;;;;;;;;;26.50;99.90;;;;;;5013135;28;19929;-83
2023/06/20 11:17:49;;;;;;;;;;;26.60;99.90;;;;;;5032264;28;19925;-83
2023/06/20 11:20:17;;;;;;;;;;;26.60;99.90;;;;;;5033628;28;20343;-84
2023/06/20 11:22:42;;;;;;;;;;;26.70;99.90;;;;;;5033501;28;19978;-83
2023/06/20 11:25:11;;;;;;;;;;;26.80;99.90;;;;;;5014475;28;19925;-85
2023/06/20 11:27:40;;;;;;;;;;;26.90;99.90;;;;;;5042287;28;19925;-84
2023/06/20 11:30:06;;;;;;;;;;;26.90;99.90;;;;;;5033051;28;19975;-84
2023/06/20 11:32:31;;;;;;;;;;;27.00;99.90;;;;;;5013072;28;20288;-84
2023/06/20 11:35:02;;;;;;;;;;;27.10;99.90;;;;;;5013825;28;19972;-84
2023/06/20 11:37:29;;;;;;;;;;;27.30;99.90;;;;;;5034551;28;19925;-85
2023/06/20 11:39:57;;;;;;;;;;;27.40;99.90;;;;;;5033567;28;20335;-84
2023/06/20 11:42:25;;;;;;;;;;;27.40;99.90;;;;;;5033487;28;19933;-84
2023/06/20 11:44:51;;;;;;;;;;;27.40;99.90;;;;;;5029126;28;19924;-83
2023/06/20 11:47:16;;;;;;;;;;;27.30;99.90;;;;;;5032191;28;19931;-85
2023/06/20 11:49:42;;;;;;;;;;;27.20;99.90;;;;;;5015789;28;20357;-84
2023/06/20 11:52:08;;;;;;;;;;;27.30;99.90;;;;;;5033385;28;20111;-84
2023/06/20 11:54:47;;;;;;;;;;;27.40;99.90;;;;;;5015585;28;19925;-84
2023/06/20 11:57:28;;;;;;;;;;;27.50;99.90;;;;;;5012857;28;19936;-85
2023/06/20 11:59:54;;;;;;;;;;;27.70;99.90;;;;;;5008043;28;19925;-84
2023/06/20 12:02:20;;;;;;;;;;;27.90;99.90;;;;;;5032274;28;19964;-86
2023/06/20 12:04:56;;;;;;;;;;;28.00;99.90;;;;;;5032016;28;20395;-85
2023/06/20 12:07:22;;;;;;;;;;;28.20;99.90;;;;;;4994283;28;19929;-84
2023/06/20 12:09:48;;;;;;;;;;;28.30;98.90;;;;;;5027275;28;20536;-85
2023/06/20 12:12:13;;;;;;;;;;;28.20;98.40;;;;;;5031273;28;20411;-85
2023/06/20 12:14:39;;;;;;;;;;;28.20;99.40;;;;;;5030132;28;19980;-85
2023/06/20 12:17:05;;;;;;;;;;;28.30;98.70;;;;;;5028878;28;20004;-85
2023/06/20 12:19:31;;;;;;;;;;;28.30;97.80;;;;;;4987671;28;20278;-84
2023/06/20 12:21:57;;;;;;;;;;;28.30;98.70;;;;;;5003626;28;19925;-85
2023/06/20 12:24:27;;;;;;;;;;;28.40;98.90;;;;;;5025479;28;19992;-86
2023/06/20 12:26:53;;;;;;;;;;;28.70;98.20;;;;;;5028910;28;20059;-87
2023/06/20 12:29:19;;;;;;;;;;;29.00;96.40;;;;;;5030566;28;19925;-84
2023/06/20 12:31:44;;;;;;;;;;;29.20;95.80;;;;;;5029360;28;19925;-83
2023/06/20 12:34:10;;;;;;;;;;;29.30;94.70;;;;;;5023656;28;19926;-85
2023/06/20 12:36:35;;;;;;;;;;;29.30;95.00;;;;;;5005126;28;19930;-85
2023/06/20 12:39:01;;;;;;;;;;;29.20;93.60;;;;;;5030537;28;20262;-84
2023/06/20 12:41:36;;;;;;;;;;;29.00;93.40;;;;;;5014281;28;19931;-85
2023/06/20 12:44:02;;;;;;;;;;;29.00;94.00;;;;;;5030024;28;19925;-85
2023/06/20 12:46:28;;;;;;;;;;;29.30;95.10;;;;;;5025025;28;20008;-85
2023/06/20 12:48:55;;;;;;;;;;;29.70;95.20;;;;;;5027426;28;20359;-84
2023/06/20 12:51:20;;;;;;;;;;;29.70;91.20;;;;;;5030015;28;19929;-85
2023/06/20 12:53:47;;;;;;;;;;;29.40;90.60;;;;;;5014326;28;20024;-85
2023/06/20 12:56:12;;;;;;;;;;;29.20;91.80;;;;;;5027350;28;19964;-85
2023/06/20 12:58:38;;;;;;;;;;;29.10;90.80;;;;;;4990362;28;20492;-85
2023/06/20 13:01:04;;;;;;;;;;;29.10;91.50;;;;;;5010040;28;19951;-85
2023/06/20 13:03:29;;;;;;;;;;;28.90;92.10;;;;;;5028012;28;19988;-85
2023/06/20 13:05:55;;;;;;;;;;;28.80;92.30;;;;;;5013669;28;19925;-85
2023/06/20 13:08:20;;;;;;;;;;;28.70;92.50;;;;;;5028978;28;19968;-86
2023/06/20 13:10:46;;;;;;;;;;;28.70;91.80;;;;;;5026823;28;19948;-85
2023/06/20 13:13:13;;;;;;;;;;;28.50;92.60;;;;;;5005247;28;19931;-83
2023/06/20 13:15:38;;;;;;;;;;;28.30;92.80;;;;;;5030533;28;19929;-87
2023/06/20 13:18:04;;;;;;;;;;;28.20;93.00;;;;;;5024452;28;20079;-86
2023/06/20 13:20:30;;;;;;;;;;;28.20;93.70;;;;;;5023431;28;19929;-85
2023/06/20 13:22:56;;;;;;;;;;;28.30;93.60;;;;;;5030143;28;20369;-85
2023/06/20 13:25:22;;;;;;;;;;;28.40;93.10;;;;;;5005538;28;19936;-86
2023/06/20 13:27:49;;;;;;;;;;;28.60;93.40;;;;;;5027510;28;19940;-85
2023/06/20 13:30:15;;;;;;;;;;;28.80;93.20;;;;;;5030578;28;20034;-85
2023/06/20 13:32:42;;;;;;;;;;;29.00;92.50;;;;;;5026605;28;20051;-85
2023/06/20 13:35:08;;;;;;;;;;;29.20;92.70;;;;;;5023866;28;19929;-85
2023/06/20 13:37:33;;;;;;;;;;;29.30;91.70;;;;;;5012463;28;20381;-85
2023/06/20 13:40:02;;;;;;;;;;;29.40;91.60;;;;;;5030452;28;20023;-85
2023/06/20 13:42:27;;;;;;;;;;;29.60;92.30;;;;;;5024029;28;20308;-87
2023/06/20 13:44:53;;;;;;;;;;;29.70;92.40;;;;;;5010489;28;19932;-87
2023/06/20 13:47:18;;;;;;;;;;;29.80;92.30;;;;;;5001902;28;19979;-88
2023/06/20 13:49:44;;;;;;;;;;;29.80;90.30;;;;;;4997252;28;19925;-87
2023/06/20 13:52:10;;;;;;;;;;;29.50;90.00;;;;;;5013823;28;19936;-86
2023/06/20 13:54:35;;;;;;;;;;;29.40;90.10;;;;;;5029876;28;20309;-86
2023/06/20 13:57:01;;;;;;;;;;;29.30;90.30;;;;;;5000677;28;19973;-89
2023/06/20 13:59:27;;;;;;;;;;;29.30;90.40;;;;;;5022035;28;20025;-86
2023/06/20 14:01:53;;;;;;;;;;;29.30;90.10;;;;;;5015676;28;19925;-85
2023/06/20 14:04:18;;;;;;;;;;;29.10;89.30;;;;;;5019702;28;19991;-85
2023/06/20 14:06:44;;;;;;;;;;;29.30;90.30;;;;;;5027778;28;19941;-85
2023/06/20 14:09:10;;;;;;;;;;;29.20;89.50;;;;;;5030202;28;19932;-87
2023/06/20 14:11:36;;;;;;;;;;;29.20;90.00;;;;;;5023862;28;19929;-84
2023/06/20 14:14:01;;;;;;;;;;;29.20;90.40;;;;;;5029676;28;20000;-84
2023/06/20 14:16:27;;;;;;;;;;;29.10;90.30;;;;;;5030366;28;19972;-85
2023/06/20 14:18:53;;;;;;;;;;;29.10;91.40;;;;;;5029645;28;20250;-85